Time;durP1;ratioP1;P1;durP2;ratioP2;P2;SDS_P1;SDS_P2;PMS_P1;PMS_P2;Temp;Humidity;BMP_temperature;BMP_pressure;BME280_temperature;BME280_humidity;BME280_pressure;Samples;Min_cycle;Max_cycle;Signal;HPM_P1;HPM_P2
2021/11/02 00:01:06;;;;;;;7.28;2.60;;;;;;;8.75;100.00;99770.59;5074426;28;20089;-35
2021/11/02 00:03:35;;;;;;;6.28;2.40;;;;;;;8.74;100.00;99775.34;5074646;28;20084;-33
2021/11/02 00:06:05;;;;;;;8.02;2.85;;;;;;;8.72;100.00;99771.22;5073993;28;20405;-38
2021/11/02 00:08:33;;;;;;;10.52;3.72;;;;;;;8.67;100.00;99774.94;5074496;28;20377;-37
2021/11/02 00:11:00;;;;;;;12.27;3.65;;;;;;;8.63;100.00;99779.47;5072938;28;20064;-39
2021/11/02 00:13:34;;;;;;;11.27;3.72;;;;;;;8.59;100.00;99770.94;5073913;28;20135;-38
2021/11/02 00:16:08;;;;;;;10.38;4.25;;;;;;;8.55;100.00;99767.16;5072651;28;20081;-32
2021/11/02 00:18:40;;;;;;;10.50;4.32;;;;;;;8.51;100.00;99763.34;5070763;28;20058;-37
2021/11/02 00:21:09;;;;;;;8.23;3.65;;;;;;;8.49;100.00;99771.19;5074197;28;20060;-36
2021/11/02 00:23:38;;;;;;;6.28;3.90;;;;;;;8.46;100.00;99771.81;5074193;28;20489;-33
2021/11/02 00:26:09;;;;;;;9.48;4.30;;;;;;;8.45;100.00;99769.31;5073982;28;20130;-35
2021/11/02 00:28:38;;;;;;;8.82;3.80;;;;;;;8.43;100.00;99774.38;5073908;28;20045;-35
2021/11/02 00:31:06;;;;;;;9.88;4.38;;;;;;;8.43;100.00;99772.41;5074161;28;20055;-33
2021/11/02 00:33:34;;;;;;;10.10;4.30;;;;;;;8.43;100.00;99775.19;5073287;28;20087;-38
2021/11/02 00:36:02;;;;;;;7.97;4.45;;;;;;;8.43;100.00;99775.19;5073924;28;20075;-38
2021/11/02 00:38:31;;;;;;;8.80;4.00;;;;;;;8.44;100.00;99778.81;5073822;28;20070;-34
2021/11/02 00:40:59;;;;;;;11.75;4.50;;;;;;;8.42;100.00;99781.88;5073511;28;20052;-38
2021/11/02 00:43:28;;;;;;;8.02;4.22;;;;;;;8.42;100.00;99779.09;5073699;28;20117;-35
2021/11/02 00:45:56;;;;;;;8.48;4.82;;;;;;;8.41;100.00;99774.69;5072553;28;20048;-36
2021/11/02 00:48:26;;;;;;;13.82;4.97;;;;;;;8.41;100.00;99779.41;5072219;28;20105;-30
2021/11/02 00:50:55;;;;;;;10.13;4.13;;;;;;;8.38;100.00;99771.72;5072698;28;20049;-32
2021/11/02 00:53:23;;;;;;;9.88;5.25;;;;;;;8.34;100.00;99770.69;5073698;28;20044;-35
2021/11/02 00:55:53;;;;;;;9.10;4.45;;;;;;;8.30;100.00;99770.47;5071776;28;20406;-35
2021/11/02 00:58:22;;;;;;;9.05;4.22;;;;;;;8.25;100.00;99776.94;5073536;28;20048;-36
2021/11/02 01:00:49;;;;;;;9.88;4.72;;;;;;;8.21;100.00;99775.09;5072647;28;20048;-38
2021/11/02 01:03:17;;;;;;;9.70;5.10;;;;;;;8.18;100.00;99772.97;5073145;28;20068;-35
2021/11/02 01:05:45;;;;;;;8.98;4.45;;;;;;;8.13;100.00;99764.72;5073373;28;20048;-34
2021/11/02 01:08:13;;;;;;;9.82;4.80;;;;;;;8.08;100.00;99762.03;5070839;28;20049;-38
2021/11/02 01:10:46;;;;;;;9.07;4.90;;;;;;;8.01;100.00;99768.00;5065178;28;20067;-32
2021/11/02 01:13:16;;;;;;;11.02;5.00;;;;;;;8.00;100.00;99759.97;5073238;28;20040;-37
2021/11/02 01:15:44;;;;;;;8.32;4.22;;;;;;;7.96;100.00;99759.78;5071494;28;20082;-37
2021/11/02 01:18:12;;;;;;;8.90;3.90;;;;;;;7.96;100.00;99757.00;5073236;28;20520;-34
2021/11/02 01:20:40;;;;;;;10.77;4.75;;;;;;;7.93;100.00;99755.69;5072980;28;20047;-32
2021/11/02 01:23:11;;;;;;;8.10;4.40;;;;;;;7.91;100.00;99757.09;5072644;28;20060;-34
2021/11/02 01:25:39;;;;;;;10.23;4.43;;;;;;;7.88;100.00;99753.00;5072076;28;20135;-36
2021/11/02 01:28:07;;;;;;;9.65;4.60;;;;;;;7.85;100.00;99753.59;5071719;28;20052;-33
2021/11/02 01:30:43;;;;;;;6.25;3.40;;;;;;;7.84;100.00;99757.50;5070773;28;20072;-40
2021/11/02 01:33:15;;;;;;;10.23;4.15;;;;;;;7.83;100.00;99766.97;5073183;28;20053;-36
2021/11/02 01:35:47;;;;;;;10.38;4.32;;;;;;;7.80;100.00;99764.81;5071091;28;20053;-32
2021/11/02 01:38:16;;;;;;;7.50;4.93;;;;;;;7.77;100.00;99761.84;5071540;28;20135;-32
2021/11/02 01:40:44;;;;;;;13.52;4.60;;;;;;;7.74;100.00;99766.06;5071180;28;20079;-38
2021/11/02 01:43:14;;;;;;;10.38;5.00;;;;;;;7.71;100.00;99769.44;5060486;28;20493;-37
2021/11/02 01:45:46;;;;;;;11.85;5.45;;;;;;;7.68;100.00;99772.81;5071146;28;20066;-33
2021/11/02 01:48:19;;;;;;;11.95;5.82;;;;;;;7.63;100.00;99770.13;5072844;28;20504;-38
2021/11/02 01:50:47;;;;;;;12.77;5.75;;;;;;;7.60;100.00;99771.56;5070398;28;20131;-36
2021/11/02 01:53:16;;;;;;;12.48;6.18;;;;;;;7.60;100.00;99779.06;5071243;28;20480;-30
2021/11/02 01:55:45;;;;;;;8.75;5.35;;;;;;;7.58;100.00;99779.41;5071053;28;20071;-35
2021/11/02 01:58:15;;;;;;;14.57;6.50;;;;;;;7.58;100.00;99782.19;5070625;28;20083;-33
2021/11/02 02:00:51;;;;;;;7.38;5.47;;;;;;;7.58;100.00;99782.19;5070945;28;20110;-38
2021/11/02 02:03:30;;;;;;;9.00;6.32;;;;;;;7.55;100.00;99782.78;5071262;28;20136;-36
2021/11/02 02:06:09;;;;;;;12.82;7.15;;;;;;;7.54;100.00;99777.53;5070486;28;20094;-30
2021/11/02 02:08:48;;;;;;;11.15;6.80;;;;;;;7.54;100.00;99772.00;5067423;28;20056;-30
2021/11/02 02:11:24;;;;;;;10.60;6.88;;;;;;;7.53;100.00;99779.50;5070313;28;20055;-34
2021/11/02 02:14:03;;;;;;;13.10;7.25;;;;;;;7.53;100.00;99773.94;5070763;28;20501;-37
2021/11/02 02:16:39;;;;;;;11.07;6.95;;;;;;;7.54;100.00;99785.88;5070472;28;20051;-36
2021/11/02 02:19:37;;;;;;;11.75;6.75;;;;;;;7.54;100.00;99774.78;5068244;28;20059;-33
2021/11/02 02:22:15;;;;;;;11.23;7.70;;;;;;;7.53;100.00;99770.34;5057489;28;20102;-34
2021/11/02 02:25:01;;;;;;;11.02;7.05;;;;;;;7.56;100.00;99778.88;5070783;28;20114;-38
2021/11/02 02:27:36;;;;;;;11.85;7.50;;;;;;;7.57;100.00;99786.09;5070339;28;20559;-36
2021/11/02 02:30:12;;;;;;;11.55;7.25;;;;;;;7.58;100.00;99778.59;5070492;28;20052;-38
2021/11/02 02:32:45;;;;;;;13.02;7.93;;;;;;;7.58;100.00;99782.19;5070724;28;20557;-34
2021/11/02 02:35:18;;;;;;;14.02;8.07;;;;;;;7.59;100.00;99781.03;5070579;28;20132;-37
2021/11/02 02:37:49;;;;;;;11.45;7.88;;;;;;;7.62;100.00;99776.81;5070118;28;20494;-31
2021/11/02 02:40:18;;;;;;;11.13;7.97;;;;;;;7.63;100.00;99775.69;5071142;28;20109;-37
2021/11/02 02:42:50;;;;;;;14.25;8.32;;;;;;;7.66;100.00;99777.84;5069740;28;20048;-35
2021/11/02 02:45:21;;;;;;;10.98;8.85;;;;;;;7.69;100.00;99777.25;5059411;28;20048;-33
2021/11/02 02:47:50;;;;;;;9.65;7.07;;;;;;;7.69;100.00;99780.03;5069259;28;20044;-33
2021/11/02 02:50:20;;;;;;;12.25;7.90;;;;;;;7.73;100.00;99771.91;5070071;28;20140;-32
2021/11/02 02:52:52;;;;;;;15.73;8.90;;;;;;;7.74;100.00;99768.84;5069906;28;20643;-33
2021/11/02 02:55:22;;;;;;;10.30;8.30;;;;;;;7.77;100.00;99765.44;5069380;28;20052;-36
2021/11/02 02:57:55;;;;;;;8.70;6.30;;;;;;;7.80;100.00;99762.03;5070099;28;20052;-33
2021/11/02 03:00:26;;;;;;;10.38;7.28;;;;;;;7.85;100.00;99755.56;5066230;28;20053;-35
2021/11/02 03:02:57;;;;;;;13.43;8.95;;;;;;;7.88;100.00;99758.53;5070277;28;20052;-30
2021/11/02 03:05:26;;;;;;;10.00;7.10;;;;;;;7.95;100.00;99763.69;5070594;28;20090;-34
2021/11/02 03:08:00;;;;;;;11.30;7.97;;;;;;;7.99;100.00;99761.97;5070468;28;20128;-37
2021/11/02 03:10:30;;;;;;;12.27;8.23;;;;;;;8.04;100.00;99770.16;5069984;28;20486;-34
2021/11/02 03:13:03;;;;;;;12.57;9.05;;;;;;;8.11;100.00;99773.38;5070888;28;20167;-30
2021/11/02 03:18:55;;;;;;;13.93;9.20;;;;;;;8.15;100.00;99773.56;5064558;28;20056;-36
2021/11/02 03:44:16;;;;;;;16.00;11.68;;;;;;;8.14;100.00;99799.72;5069177;28;20417;-34
2021/11/02 03:49:40;;;;;;;17.00;11.20;;;;;;;7.99;100.00;99808.34;5068909;28;20094;-38
2021/11/02 03:55:02;;;;;;;9.43;8.10;;;;;;;7.95;100.00;99808.97;5069172;28;20472;-33
2021/11/02 03:57:38;;;;;;;12.40;8.68;;;;;;;8.00;100.00;99805.25;5068907;28;20053;-34
2021/11/02 04:28:57;;;;;;;8.07;6.30;;;;;;;8.10;100.00;99813.38;5068020;28;20053;-29
2021/11/02 05:11:07;;;;;;;16.50;11.32;;;;;;;7.26;100.00;99818.25;5073405;28;20556;-36
2021/11/02 05:14:14;;;;;;;15.73;10.90;;;;;;;7.21;100.00;99824.72;5070434;28;20041;-36
2021/11/02 05:47:49;;;;;;;14.40;11.73;;;;;;;7.23;100.00;99830.78;5071316;28;20048;-32
2021/11/02 05:50:37;;;;;;;13.75;8.90;;;;;;;7.29;100.00;99828.75;5070429;28;20504;-36
2021/11/02 05:53:31;;;;;;;16.48;12.02;;;;;;;7.31;100.00;99837.63;5071401;28;20050;-35
2021/11/02 05:56:15;;;;;;;13.15;9.38;;;;;;;7.35;100.00;99843.38;5070972;28;20048;-32
2021/11/02 05:58:54;;;;;;;16.00;11.32;;;;;;;7.37;100.00;99839.19;5070649;28;20044;-38
2021/11/02 06:01:35;;;;;;;14.90;9.70;;;;;;;7.40;100.00;99844.09;5071372;28;20052;-32
2021/11/02 06:04:19;;;;;;;9.77;7.07;;;;;;;7.46;100.00;99845.69;5071710;28;20101;-33
2021/11/02 06:07:01;;;;;;;8.68;5.40;;;;;;;7.52;100.00;99841.69;5072424;28;20051;-36
2021/11/02 06:09:37;;;;;;;;;;;;;;;7.53;100.00;99851.66;5072700;28;20067;-33
2021/11/02 06:27:43;;;;;;;11.82;7.32;;;;;;;7.47;100.00;99858.44;5049068;28;20066;-38
2021/11/02 06:29:23;;;;;;;11.38;8.90;;;;;;;7.49;100.00;99864.50;5060863;28;20044;-32
2021/11/02 06:31:55;;;;;;;11.73;8.48;;;;;;;7.53;100.00;99861.94;5070296;28;20040;-32
2021/11/02 06:34:32;;;;;;;10.23;7.22;;;;;;;7.54;100.00;99861.66;5071225;28;20049;-35
2021/11/02 06:40:14;;;;;;;10.65;9.18;;;;;;;7.56;100.00;99859.41;5013376;28;20538;-35
2021/11/02 06:48:29;;;;;;;13.75;11.15;;;;;;;7.68;100.00;99860.84;5071233;28;20064;-30
2021/11/02 06:54:11;;;;;;;11.10;8.73;;;;;;;7.73;100.00;99856.03;5061897;28;20404;-34
2021/11/02 07:00:01;;;;;;;13.73;10.38;;;;;;;7.79;100.00;99845.69;5070869;28;20055;-39
2021/11/02 07:20:11;;;;;;;20.10;16.02;;;;;;;7.93;100.00;99860.41;5065276;28;20037;-31
2021/11/02 07:22:56;;;;;;;22.23;15.23;;;;;;;7.97;100.00;99868.94;5066642;28;20040;-36
2021/11/02 07:25:39;;;;;;;18.85;15.55;;;;;;;7.97;100.00;99863.41;5070954;28;20040;-33
2021/11/02 07:28:21;;;;;;;20.35;15.75;;;;;;;7.96;100.00;99873.69;5070362;28;20351;-33
2021/11/02 08:47:08;;;;;;;16.60;12.70;;;;;;;10.22;100.00;99840.03;5071558;28;20060;-34
2021/11/02 08:49:41;;;;;;;14.05;10.52;;;;;;;10.42;100.00;99826.66;5073419;28;20059;-34
2021/11/02 08:52:10;;;;;;;;;;;;;;;10.46;100.00;99845.22;5070901;28;20049;-35
2021/11/02 08:54:37;;;;;;;13.57;9.40;;;;;;;10.55;100.00;99840.50;5073377;28;19931;-31
2021/11/02 08:57:06;;;;;;;14.65;11.35;;;;;;;10.56;100.00;99842.16;5072343;28;20047;-35
2021/11/02 08:59:34;;;;;;;14.73;11.68;;;;;;;10.54;100.00;99838.88;5072901;28;20454;-39
2021/11/02 09:02:06;;;;;;;16.40;12.48;;;;;;;10.55;100.00;99845.25;5073341;28;20049;-36
2021/11/02 09:04:39;;;;;;;18.15;13.80;;;;;;;10.34;100.00;99840.28;5073614;28;20074;-38
2021/11/02 09:07:13;;;;;;;16.40;12.60;;;;;;;10.19;100.00;99848.25;5072912;28;20125;-37
2021/11/02 09:09:42;;;;;;;18.83;14.45;;;;;;;9.87;100.00;99847.41;5073234;28;20036;-33
2021/11/02 09:12:10;;;;;;;17.88;13.48;;;;;;;9.75;100.00;99852.75;5073001;28;20067;-33
2021/11/02 09:14:40;;;;;;;16.48;12.98;;;;;;;9.67;100.00;99859.91;5072382;28;20466;-37
2021/11/02 09:17:09;;;;;;;15.45;11.57;;;;;;;9.62;100.00;99859.19;5073645;28;20132;-33
2021/11/02 09:19:37;;;;;;;18.08;13.80;;;;;;;9.56;100.00;99868.84;5072727;28;20462;-33
2021/11/02 09:22:10;;;;;;;19.02;13.82;;;;;;;9.44;100.00;99868.56;5072430;28;20041;-38
2021/11/02 09:24:42;;;;;;;16.63;12.60;;;;;;;9.35;100.00;99873.25;5072813;28;20135;-31
2021/11/02 09:27:11;;;;;;;15.77;11.95;;;;;;;9.34;100.00;99880.78;5072451;28;20052;-39
2021/11/02 09:29:39;;;;;;;16.02;12.02;;;;;;;9.33;100.00;99871.63;5072804;28;20052;-36
2021/11/02 09:32:09;;;;;;;15.82;12.68;;;;;;;9.39;100.00;99869.53;5072938;28;20036;-37
2021/11/02 09:34:37;;;;;;;13.75;11.15;;;;;;;9.44;100.00;99869.38;5072221;28;20052;-36
2021/11/02 09:37:08;;;;;;;12.57;10.05;;;;;;;9.48;100.00;99872.38;5072559;28;20053;-36
2021/11/02 09:39:41;;;;;;;14.75;10.38;;;;;;;9.51;100.00;99872.56;5072933;28;20059;-38
2021/11/02 09:42:17;;;;;;;13.60;9.95;;;;;;;9.56;100.00;99878.00;5071288;28;20048;-34
2021/11/02 09:45:18;;;;;;;14.13;10.05;;;;;;;9.67;100.00;99881.34;5073013;28;20162;-34
2021/11/02 09:48:13;;;;;;;13.10;9.40;;;;;;;9.70;100.00;99877.94;5071376;28;20094;-39
2021/11/02 09:51:16;;;;;;;10.77;8.23;;;;;;;9.67;100.00;99882.19;5072456;28;20052;-34
2021/11/02 09:54:24;;;;;;;10.32;7.63;;;;;;;9.78;100.00;99885.53;5057157;28;20132;-40
2021/11/02 09:57:15;;;;;;;9.98;7.30;;;;;;;9.86;100.00;99887.53;5069749;28;20382;-36
2021/11/02 10:00:07;;;;;;;12.45;9.40;;;;;;;9.95;100.00;99893.19;5062148;28;20045;-34
2021/11/02 10:03:28;;;;;;;13.60;9.25;;;;;;;9.91;100.00;99887.41;5071175;28;20182;-34
2021/11/02 10:06:30;;;;;;;12.63;9.50;;;;;;;9.81;100.00;99884.88;5071279;28;20102;-34
2021/11/02 10:09:06;;;;;;;13.50;9.63;;;;;;;9.80;100.00;99893.56;5067307;28;20048;-32
2021/11/02 10:11:39;;;;;;;14.07;9.32;;;;;;;9.81;100.00;99886.84;5059321;28;20127;-33
2021/11/02 10:14:43;;;;;;;12.55;9.10;;;;;;;9.76;100.00;99895.34;5072043;28;20040;-33
2021/11/02 10:17:34;;;;;;;15.10;10.18;;;;;;;9.54;100.00;99888.66;5062306;28;20135;-32
2021/11/02 10:20:10;;;;;;;12.98;9.70;;;;;;;9.43;100.00;99889.19;5065508;28;20098;-31
2021/11/02 10:23:21;;;;;;;13.23;9.55;;;;;;;9.46;100.00;99891.34;5071566;28;20048;-31
2021/11/02 10:26:23;;;;;;;14.43;10.25;;;;;;;9.46;100.00;99885.78;5052065;28;20053;-33
2021/11/02 10:29:34;;;;;;;15.38;10.35;;;;;;;9.46;100.00;99891.34;5071768;28;20040;-31
2021/11/02 10:32:08;;;;;;;;;;;;;;;9.42;100.00;99884.75;5070426;28;20127;-39
2021/11/02 10:34:48;;;;;;;11.70;8.73;;;;;;;9.51;100.00;99885.66;5071744;28;19921;-35
2021/11/02 10:37:24;;;;;;;12.13;9.20;;;;;;;9.57;100.00;99882.44;5071458;28;20056;-32
2021/11/02 10:40:17;;;;;;;16.10;9.82;;;;;;;9.65;100.00;99884.47;5071388;28;20142;-37
2021/11/02 10:43:00;;;;;;;14.52;9.30;;;;;;;9.65;100.00;99894.78;5060042;28;20036;-36
2021/11/02 10:45:31;;;;;;;13.57;9.67;;;;;;;9.67;100.00;99886.94;5070599;28;20048;-33
2021/11/02 10:48:05;;;;;;;13.98;9.40;;;;;;;9.71;100.00;99884.34;5071374;28;20041;-34
2021/11/02 10:50:37;;;;;;;11.35;8.98;;;;;;;9.73;100.00;99885.66;5071188;28;20049;-33
2021/11/02 10:53:07;;;;;;;11.82;8.27;;;;;;;9.79;100.00;99887.16;5069801;28;20052;-38
2021/11/02 10:55:48;;;;;;;13.35;8.45;;;;;;;9.85;100.00;99894.25;5070150;28;20053;-32
2021/11/02 10:58:35;;;;;;;16.00;9.45;;;;;;;9.91;100.00;99890.22;5071576;28;20053;-36
2021/11/02 11:01:05;;;;;;;13.48;8.82;;;;;;;9.91;100.00;99886.59;5071470;28;20064;-38
2021/11/02 11:03:36;;;;;;;14.10;8.80;;;;;;;9.94;100.00;99892.38;5071256;28;20072;-31
2021/11/02 11:06:06;;;;;;;14.70;8.90;;;;;;;9.99;100.00;99889.41;5070876;28;20048;-33
2021/11/02 11:08:36;;;;;;;14.10;10.20;;;;;;;10.07;100.00;99887.84;5071103;28;20048;-38
2021/11/02 11:11:06;;;;;;;13.18;8.85;;;;;;;10.09;100.00;99893.91;5071112;28;20056;-31
2021/11/02 11:13:38;;;;;;;12.85;9.18;;;;;;;10.11;100.00;99896.38;5057719;28;20125;-33
2021/11/02 11:16:11;;;;;;;15.25;10.50;;;;;;;10.14;100.00;99892.97;5071229;28;20072;-36
2021/11/02 11:18:52;;;;;;;16.85;10.65;;;;;;;10.17;100.00;99893.16;5070722;28;20059;-34
2021/11/02 11:21:21;;;;;;;17.10;10.00;;;;;;;10.21;100.00;99890.56;5070451;28;20044;-37
2021/11/02 11:23:56;;;;;;;14.65;9.45;;;;;;;10.24;100.00;99889.91;5070813;28;20045;-34
2021/11/02 11:26:26;;;;;;;15.60;10.38;;;;;;;10.27;100.00;99887.31;5071166;28;20056;-36
2021/11/02 11:28:56;;;;;;;14.43;10.25;;;;;;;10.34;100.00;99892.44;5070480;28;20052;-30
2021/11/02 11:31:25;;;;;;;14.27;9.30;;;;;;;10.41;100.00;99897.53;5064814;28;20045;-36
2021/11/02 11:34:01;;;;;;;15.00;9.35;;;;;;;10.42;100.00;99894.41;5070197;28;20049;-35
2021/11/02 11:36:33;;;;;;;13.93;9.25;;;;;;;10.44;100.00;99900.50;5070831;28;20421;-34
2021/11/02 11:39:03;;;;;;;14.70;9.80;;;;;;;10.48;100.00;99895.09;5070803;28;20041;-37
2021/11/02 11:41:35;;;;;;;13.40;8.88;;;;;;;10.51;100.00;99888.88;5070364;28;20049;-35
2021/11/02 11:44:04;;;;;;;14.27;9.60;;;;;;;10.51;100.00;99897.25;5069358;28;20052;-42
2021/11/02 11:46:33;;;;;;;13.38;8.93;;;;;;;10.51;100.00;99892.50;5070651;28;20098;-35
2021/11/02 11:49:03;;;;;;;16.17;10.35;;;;;;;10.46;100.00;99897.41;5069776;28;20105;-37
2021/11/02 11:51:32;;;;;;;14.32;8.93;;;;;;;10.47;100.00;99888.72;5070879;28;20071;-34
2021/11/02 11:54:03;;;;;;;13.55;8.80;;;;;;;10.46;100.00;99898.22;5074560;28;20056;-36
2021/11/02 11:56:36;;;;;;;13.50;9.40;;;;;;;10.41;100.00;99898.34;5074090;28;20040;-31
2021/11/02 11:59:05;;;;;;;13.10;8.52;;;;;;;10.40;100.00;99888.34;5074807;28;20060;-37
2021/11/02 12:01:41;;;;;;;13.35;9.50;;;;;;;10.45;100.00;99892.97;5074571;28;20063;-34
2021/11/02 12:04:21;;;;;;;12.80;8.90;;;;;;;10.44;100.00;99892.13;5074415;28;20099;-36
2021/11/02 12:07:03;;;;;;;11.75;8.68;;;;;;;10.39;100.00;99885.91;5074259;28;20048;-34
2021/11/02 12:09:40;;;;;;;11.70;8.80;;;;;;;10.33;100.00;99888.00;5074270;28;20056;-37
2021/11/02 12:12:09;;;;;;;10.32;8.05;;;;;;;10.27;100.00;99889.28;5073235;28;20103;-34
2021/11/02 12:14:44;;;;;;;15.20;10.50;;;;;;;10.24;100.00;99889.91;5074734;28;20330;-38
2021/11/02 12:17:16;;;;;;;12.25;9.93;;;;;;;10.24;100.00;99885.16;5073589;28;20462;-34
2021/11/02 12:19:51;;;;;;;;;;;;;;;10.20;100.00;99888.91;5074887;28;20522;-32
2021/11/02 12:22:31;;;;;;;12.07;9.32;;;;;;;10.19;100.00;99890.06;5073230;28;19927;-34
2021/11/02 12:25:05;;;;;;;12.45;9.95;;;;;;;10.19;100.00;99887.28;5073520;28;20165;-35
2021/11/02 12:27:38;;;;;;;12.15;9.68;;;;;;;10.23;100.00;99888.28;5073958;28;20051;-34
2021/11/02 12:30:10;;;;;;;14.07;10.77;;;;;;;10.23;100.00;99888.28;5073872;28;20087;-34
2021/11/02 12:32:45;;;;;;;17.10;12.50;;;;;;;10.27;100.00;99892.06;5073526;28;20413;-34
2021/11/02 12:35:26;;;;;;;13.68;10.93;;;;;;;10.29;100.00;99898.16;5074281;28;20048;-38
2021/11/02 12:37:57;;;;;;;11.67;8.70;;;;;;;10.33;100.00;99899.16;5072098;28;20048;-36
2021/11/02 12:40:27;;;;;;;13.43;10.38;;;;;;;10.37;100.00;99897.38;5074118;28;20063;-34
2021/11/02 12:43:25;;;;;;;14.57;9.95;;;;;;;10.40;100.00;99895.88;5073535;28;20048;-33
2021/11/02 12:45:55;;;;;;;14.77;9.88;;;;;;;10.37;100.00;99891.81;5073372;28;20049;-34
2021/11/02 12:48:24;;;;;;;13.63;10.52;;;;;;;10.36;100.00;99890.16;5073656;28;20040;-30
2021/11/02 12:51:17;;;;;;;12.82;10.35;;;;;;;10.35;100.00;99900.47;5073250;28;20071;-35
2021/11/02 12:53:52;;;;;;;14.35;10.90;;;;;;;10.37;100.00;99893.75;5071100;28;20036;-33
2021/11/02 12:56:22;;;;;;;13.23;10.25;;;;;;;10.35;100.00;99892.13;5073773;28;20519;-33
2021/11/02 12:58:52;;;;;;;14.50;10.38;;;;;;;10.34;100.00;99895.22;5069403;28;20048;-30
2021/11/02 13:01:34;;;;;;;16.70;11.40;;;;;;;10.29;100.00;99890.59;5073752;28;20052;-39
2021/11/02 13:04:05;;;;;;;11.77;9.13;;;;;;;10.27;100.00;99895.69;5069316;28;20046;-33
2021/11/02 13:06:47;;;;;;;13.43;9.90;;;;;;;10.25;100.00;99897.13;5073255;28;20080;-36
2021/11/02 13:09:17;;;;;;;;;;;;;;;10.20;100.00;99895.31;5071017;28;20045;-37
2021/11/02 13:11:46;;;;;;;14.13;8.73;;;;;;;10.23;100.00;99905.00;5073359;28;19932;-32
2021/11/02 13:14:16;;;;;;;10.75;8.75;;;;;;;10.29;100.00;99901.75;5071980;28;20540;-35
2021/11/02 13:16:56;;;;;;;8.93;6.40;;;;;;;10.37;100.00;99894.59;5073540;28;20048;-34
2021/11/02 13:19:26;;;;;;;12.68;9.52;;;;;;;10.36;100.00;99901.31;5071930;28;20449;-33
2021/11/02 13:21:55;;;;;;;13.93;9.23;;;;;;;10.36;100.00;99898.53;5073579;28;20056;-34
2021/11/02 13:24:27;;;;;;;10.05;7.05;;;;;;;10.40;100.00;99893.09;5072648;28;20512;-33
2021/11/02 13:26:57;;;;;;;11.45;9.02;;;;;;;10.42;100.00;99908.38;5072843;28;20102;-35
2021/11/02 13:29:27;;;;;;;13.00;9.43;;;;;;;10.40;100.00;99902.28;5072789;28;20062;-37
2021/11/02 13:31:55;;;;;;;13.40;9.77;;;;;;;10.37;100.00;99900.16;5073200;28;20399;-34
2021/11/02 13:34:35;;;;;;;11.48;8.35;;;;;;;10.37;100.00;99899.34;5072232;28;20044;-39
2021/11/02 13:37:07;;;;;;;11.07;8.50;;;;;;;10.32;100.00;99897.50;5062258;28;20049;-36
2021/11/02 13:39:54;;;;;;;10.32;7.85;;;;;;;10.33;100.00;99897.19;5072699;28;20041;-35
2021/11/02 13:42:47;;;;;;;9.07;6.63;;;;;;;10.34;100.00;99898.84;5063270;28;20052;-34
2021/11/02 13:45:20;;;;;;;10.20;7.97;;;;;;;10.34;100.00;99898.84;5071697;28;20044;-35
2021/11/02 13:47:49;;;;;;;12.15;8.02;;;;;;;10.36;100.00;99898.53;5072595;28;20070;-33
2021/11/02 13:50:17;;;;;;;11.70;8.60;;;;;;;10.34;100.00;99901.63;5072514;28;20048;-36
2021/11/02 13:52:52;;;;;;;12.88;8.32;;;;;;;10.33;100.00;99901.94;5072862;28;20098;-38
2021/11/02 13:55:20;;;;;;;10.38;7.20;;;;;;;10.33;100.00;99896.38;5071854;28;20056;-36
2021/11/02 13:57:47;;;;;;;11.25;8.05;;;;;;;10.36;100.00;99904.09;5072365;28;20055;-35
2021/11/02 14:00:16;;;;;;;11.85;7.68;;;;;;;10.35;100.00;99899.66;5072209;28;20053;-41
2021/11/02 14:02:44;;;;;;;9.95;7.63;;;;;;;10.35;100.00;99902.44;5071906;28;20079;-36
2021/11/02 14:05:13;;;;;;;9.10;7.18;;;;;;;10.30;100.00;99897.00;5072200;28;20047;-34
2021/11/02 14:07:44;;;;;;;8.82;6.60;;;;;;;10.27;100.00;99900.44;5072323;28;20140;-38
2021/11/02 14:10:14;;;;;;;8.07;6.97;;;;;;;10.25;100.00;99908.28;5071632;28;20397;-38
2021/11/02 14:12:45;;;;;;;12.85;8.55;;;;;;;10.26;100.00;99904.34;5071865;28;20840;-34
2021/11/02 14:15:17;;;;;;;7.97;5.47;;;;;;;10.22;100.00;99897.78;5071953;28;20501;-33
2021/11/02 14:18:08;;;;;;;10.63;8.20;;;;;;;10.18;100.00;99902.34;5070074;28;20524;-38
2021/11/02 14:20:37;;;;;;;12.85;9.27;;;;;;;10.12;100.00;99906.41;5071757;28;20049;-34
2021/11/02 14:23:07;;;;;;;11.13;8.38;;;;;;;10.07;100.00;99903.72;5067854;28;20045;-38
2021/11/02 14:25:39;;;;;;;12.40;9.50;;;;;;;9.99;100.00;99905.34;5071978;28;20037;-37
2021/11/02 14:28:08;;;;;;;13.07;9.07;;;;;;;9.95;100.00;99907.94;5070684;28;20044;-31
2021/11/02 14:30:41;;;;;;;13.18;10.15;;;;;;;9.91;100.00;99904.13;5070016;28;20050;-37
2021/11/02 14:33:18;;;;;;;13.45;9.90;;;;;;;9.88;100.00;99907.56;5070630;28;20419;-37
2021/11/02 14:35:53;;;;;;;11.15;7.88;;;;;;;9.90;100.00;99905.28;5071649;28;20123;-37
2021/11/02 14:38:23;;;;;;;12.73;8.15;;;;;;;9.92;100.00;99905.78;5071076;28;20055;-36
2021/11/02 14:41:32;;;;;;;10.07;7.10;;;;;;;9.92;100.00;99903.00;5071430;28;20055;-34
2021/11/02 14:44:27;;;;;;;6.25;4.82;;;;;;;9.93;100.00;99912.19;5069666;28;20474;-33
2021/11/02 14:46:56;;;;;;;8.30;5.20;;;;;;;9.92;100.00;99904.97;5071387;28;20041;-33
2021/11/02 14:49:44;;;;;;;6.65;3.67;;;;;;;9.91;100.00;99909.72;5071455;28;20055;-36
2021/11/02 14:52:13;;;;;;;5.88;3.70;;;;;;;9.89;100.00;99912.00;5070489;28;20052;-30
2021/11/02 14:54:43;;;;;;;6.60;3.90;;;;;;;9.87;100.00;99908.69;5071518;28;20057;-35
2021/11/02 14:57:53;;;;;;;5.05;3.10;;;;;;;9.84;100.00;99906.53;5071139;28;20080;-34
2021/11/02 15:00:42;;;;;;;3.97;2.60;;;;;;;9.78;100.00;99907.00;5063620;28;20048;-36
2021/11/02 15:03:19;;;;;;;6.55;2.97;;;;;;;9.72;100.00;99903.53;5071281;28;20048;-34
2021/11/02 15:05:47;;;;;;;4.72;3.42;;;;;;;9.67;100.00;99907.25;5070716;28;20067;-36
2021/11/02 15:08:16;;;;;;;6.03;4.07;;;;;;;9.64;100.00;99915.41;5069854;28;20444;-34
2021/11/02 15:10:45;;;;;;;9.02;6.32;;;;;;;9.61;100.00;99910.47;5070849;28;20059;-30
2021/11/02 15:13:20;;;;;;;6.60;4.20;;;;;;;9.61;100.00;99916.03;5070426;28;20052;-37
2021/11/02 15:15:50;;;;;;;6.43;3.78;;;;;;;9.57;100.00;99912.25;5071391;28;20048;-33
2021/11/02 15:18:18;;;;;;;5.38;3.25;;;;;;;9.55;100.00;99911.75;5070716;28;20040;-30
2021/11/02 15:20:48;;;;;;;5.50;3.33;;;;;;;9.54;100.00;99916.50;5070699;28;20131;-34
2021/11/02 15:23:17;;;;;;;4.95;3.20;;;;;;;9.56;100.00;99922.59;5070560;28;20052;-34
2021/11/02 15:25:46;;;;;;;5.70;2.83;;;;;;;9.58;100.00;99922.25;5071144;28;20094;-35
2021/11/02 15:28:16;;;;;;;3.92;2.53;;;;;;;9.62;100.00;99926.03;5070462;28;20076;-37
2021/11/02 15:30:50;;;;;;;4.38;2.58;;;;;;;9.64;100.00;99927.38;5060462;28;20079;-36
2021/11/02 15:33:26;;;;;;;3.58;2.05;;;;;;;9.71;100.00;99935.31;5069874;28;20048;-38
2021/11/02 15:36:08;;;;;;;3.90;2.25;;;;;;;9.74;100.00;99945.00;5070617;28;20063;-37
2021/11/02 15:38:36;;;;;;;4.38;2.63;;;;;;;9.73;100.00;99946.13;5070335;28;20139;-35
2021/11/02 15:41:17;;;;;;;4.25;2.03;;;;;;;9.76;100.00;99937.97;5068510;28;20393;-32
2021/11/02 15:43:53;;;;;;;3.78;2.28;;;;;;;9.77;100.00;99945.19;5070598;28;20072;-37
2021/11/02 15:46:23;;;;;;;3.07;1.90;;;;;;;9.77;100.00;99941.59;5059836;28;20048;-31
2021/11/02 15:48:54;;;;;;;2.92;1.70;;;;;;;9.78;100.00;99955.19;5069466;28;20411;-31
2021/11/02 15:51:24;;;;;;;7.25;1.88;;;;;;;9.78;100.00;99965.53;5070723;28;20111;-37
2021/11/02 15:53:52;;;;;;;2.85;1.00;;;;;;;9.70;100.00;99966.25;5070486;28;20049;-32
2021/11/02 15:56:25;;;;;;;2.80;0.80;;;;;;;9.58;100.00;99961.25;5070636;28;20045;-35
2021/11/02 15:59:02;;;;;;;3.97;0.60;;;;;;;9.49;100.00;99960.34;5070258;28;20036;-33
2021/11/02 16:01:32;;;;;;;3.92;0.85;;;;;;;9.42;100.00;99974.69;5067919;28;20098;-33
2021/11/02 16:04:08;;;;;;;3.75;0.50;;;;;;;9.37;100.00;99974.00;5070427;28;20040;-37
2021/11/02 16:06:36;;;;;;;1.95;0.30;;;;;;;9.29;100.00;99970.81;5066922;28;20075;-38
2021/11/02 16:09:06;;;;;;;4.13;1.15;;;;;;;9.25;100.00;99969.78;5068946;28;20047;-36
2021/11/02 16:11:35;;;;;;;1.92;0.50;;;;;;;9.23;100.00;99977.63;5069033;28;20048;-33
2021/11/02 16:14:08;;;;;;;2.85;0.40;;;;;;;9.23;100.00;99972.06;5069815;28;20044;-34